sensor_id;sensor_type;location;lat;lon;timestamp;pressure;altitude;pressure_sealevel;temperature;humidity
68366;BME280;55283;51.466;5.478;2023-02-18T00:01:56;102109.72;;;20.40;46.63
68366;BME280;55283;51.466;5.478;2023-02-18T00:04:21;102107.28;;;20.45;46.43
68366;BME280;55283;51.466;5.478;2023-02-18T00:06:46;102096.88;;;20.42;46.84
68366;BME280;55283;51.466;5.478;2023-02-18T00:09:12;102088.03;;;20.47;46.57
68366;BME280;55283;51.466;5.478;2023-02-18T00:11:38;102094.47;;;20.44;46.69
68366;BME280;55283;51.466;5.478;2023-02-18T00:14:07;102096.09;;;20.42;46.63
68366;BME280;55283;51.466;5.478;2023-02-18T00:16:32;102089.69;;;20.41;46.62
68366;BME280;55283;51.466;5.478;2023-02-18T00:19:00;102089.69;;;20.41;46.54
68366;BME280;55283;51.466;5.478;2023-02-18T00:21:27;102080.53;;;20.37;46.55
68366;BME280;55283;51.466;5.478;2023-02-18T00:23:52;102084.50;;;20.43;46.44
68366;BME280;55283;51.466;5.478;2023-02-18T00:26:18;102084.13;;;20.38;46.50
68366;BME280;55283;51.466;5.478;2023-02-18T00:28:45;102086.50;;;20.43;46.60
68366;BME280;55283;51.466;5.478;2023-02-18T00:31:15;102084.09;;;20.41;46.57
68366;BME280;55283;51.466;5.478;2023-02-18T00:33:41;102076.09;;;20.36;46.62
68366;BME280;55283;51.466;5.478;2023-02-18T00:36:10;102086.91;;;20.41;46.67
68366;BME280;55283;51.466;5.478;2023-02-18T00:38:36;102086.91;;;20.41;46.63
68366;BME280;55283;51.466;5.478;2023-02-18T00:41:02;102083.31;;;20.41;46.43
68366;BME280;55283;51.466;5.478;2023-02-18T00:43:28;102071.31;;;20.40;46.39
68366;BME280;55283;51.466;5.478;2023-02-18T00:45:54;102081.72;;;20.40;46.42
68366;BME280;55283;51.466;5.478;2023-02-18T00:48:19;102068.13;;;20.38;46.50
68366;BME280;55283;51.466;5.478;2023-02-18T00:50:45;102057.69;;;20.39;46.39
68366;BME280;55283;51.466;5.478;2023-02-18T00:53:11;102061.69;;;20.41;46.31
68366;BME280;55283;51.466;5.478;2023-02-18T00:55:40;102057.31;;;20.40;46.38
68366;BME280;55283;51.466;5.478;2023-02-18T00:58:06;102053.72;;;20.40;46.45
68366;BME280;55283;51.466;5.478;2023-02-18T01:00:32;102046.09;;;20.40;46.56
68366;BME280;55283;51.466;5.478;2023-02-18T01:02:58;102045.72;;;20.38;46.44
68366;BME280;55283;51.466;5.478;2023-02-18T01:05:23;102044.91;;;20.38;46.37
68366;BME280;55283;51.466;5.478;2023-02-18T01:07:49;102052.91;;;20.39;46.41
68366;BME280;55283;51.466;5.478;2023-02-18T01:10:14;102033.31;;;20.32;46.31
68366;BME280;55283;51.466;5.478;2023-02-18T01:12:40;102044.50;;;20.35;46.39
68366;BME280;55283;51.466;5.478;2023-02-18T01:15:06;102033.28;;;20.35;46.64
68366;BME280;55283;51.466;5.478;2023-02-18T01:17:31;102028.47;;;20.36;46.48
68366;BME280;55283;51.466;5.478;2023-02-18T01:19:57;102030.13;;;20.37;46.48
68366;BME280;55283;51.466;5.478;2023-02-18T01:22:22;102039.69;;;20.36;46.60
68366;BME280;55283;51.466;5.478;2023-02-18T01:24:48;102040.91;;;20.39;46.45
68366;BME280;55283;51.466;5.478;2023-02-18T01:27:13;102036.09;;;20.35;46.54
68366;BME280;55283;51.466;5.478;2023-02-18T01:29:39;102022.56;;;20.27;46.49
68366;BME280;55283;51.466;5.478;2023-02-18T01:32:04;102028.13;;;20.34;46.62
68366;BME280;55283;51.466;5.478;2023-02-18T01:34:30;102032.50;;;20.35;46.56
68366;BME280;55283;51.466;5.478;2023-02-18T01:36:55;102020.91;;;20.37;46.32
68366;BME280;55283;51.466;5.478;2023-02-18T01:39:20;102031.28;;;20.36;46.35
68366;BME280;55283;51.466;5.478;2023-02-18T01:41:46;102021.72;;;20.37;46.17
68366;BME280;55283;51.466;5.478;2023-02-18T01:44:15;102008.13;;;20.32;46.48
68366;BME280;55283;51.466;5.478;2023-02-18T01:46:41;102007.69;;;20.33;46.48
68366;BME280;55283;51.466;5.478;2023-02-18T01:49:07;102010.53;;;20.37;46.53
68366;BME280;55283;51.466;5.478;2023-02-18T01:51:40;102000.13;;;20.38;46.25
68366;BME280;55283;51.466;5.478;2023-02-18T01:54:16;101998.16;;;20.31;46.40
68366;BME280;55283;51.466;5.478;2023-02-18T01:57:00;102007.31;;;20.35;46.34
68366;BME280;55283;51.466;5.478;2023-02-18T01:59:38;102007.31;;;20.35;46.39
68366;BME280;55283;51.466;5.478;2023-02-18T02:02:07;101994.56;;;20.27;46.51
68366;BME280;55283;51.466;5.478;2023-02-18T02:04:35;101992.16;;;20.29;46.33
68366;BME280;55283;51.466;5.478;2023-02-18T02:07:00;102001.69;;;20.35;46.34
68366;BME280;55283;51.466;5.478;2023-02-18T02:09:27;102004.09;;;20.33;46.39
68366;BME280;55283;51.466;5.478;2023-02-18T02:17:04;101981.78;;;20.26;46.51
68366;BME280;55283;51.466;5.478;2023-02-18T02:33:53;101964.97;;;20.26;46.59
68366;BME280;55283;51.466;5.478;2023-02-18T02:39:06;101960.13;;;20.30;46.48
68366;BME280;55283;51.466;5.478;2023-02-18T02:41:42;101950.19;;;20.25;46.45
68366;BME280;55283;51.466;5.478;2023-02-18T02:46:44;101954.91;;;20.32;46.47
68366;BME280;55283;51.466;5.478;2023-02-18T02:51:55;101928.97;;;20.24;46.38
68366;BME280;55283;51.466;5.478;2023-02-18T02:54:25;101928.97;;;20.28;46.28
68366;BME280;55283;51.466;5.478;2023-02-18T02:59:44;101925.38;;;20.24;46.35
68366;BME280;55283;51.466;5.478;2023-02-18T03:02:23;101926.16;;;20.28;45.99
68366;BME280;55283;51.466;5.478;2023-02-18T03:05:34;101931.78;;;20.28;46.57
68366;BME280;55283;51.466;5.478;2023-02-18T03:08:33;101925.78;;;20.26;46.39
68366;BME280;55283;51.466;5.478;2023-02-18T03:11:07;101908.19;;;20.25;46.44
68366;BME280;55283;51.466;5.478;2023-02-18T03:16:46;101919.34;;;20.29;46.32
68366;BME280;55283;51.466;5.478;2023-02-18T03:19:21;101899.38;;;20.27;46.31
68366;BME280;55283;51.466;5.478;2023-02-18T03:21:57;101896.94;;;20.29;46.41
68366;BME280;55283;51.466;5.478;2023-02-18T03:24:31;101886.59;;;20.26;46.43
68366;BME280;55283;51.466;5.478;2023-02-18T03:27:04;101886.59;;;20.26;46.24
68366;BME280;55283;51.466;5.478;2023-02-18T03:29:30;101873.78;;;20.25;46.44
68366;BME280;55283;51.466;5.478;2023-02-18T03:32:00;101855.44;;;20.20;46.39
68366;BME280;55283;51.466;5.478;2023-02-18T03:34:33;101860.19;;;20.23;46.41
68366;BME280;55283;51.466;5.478;2023-02-18T03:37:01;101856.16;;;20.28;46.25
68366;BME280;55283;51.466;5.478;2023-02-18T03:39:28;101858.97;;;20.28;46.43
68366;BME280;55283;51.466;5.478;2023-02-18T03:41:55;101852.94;;;20.29;46.24
68366;BME280;55283;51.466;5.478;2023-02-18T03:44:20;101839.03;;;20.22;46.25
68366;BME280;55283;51.466;5.478;2023-02-18T03:46:48;101850.13;;;20.29;46.20
68366;BME280;55283;51.466;5.478;2023-02-18T03:49:14;101837.38;;;20.28;46.28
68366;BME280;55283;51.466;5.478;2023-02-18T03:51:40;101839.31;;;20.31;46.17
68366;BME280;55283;51.466;5.478;2023-02-18T03:54:05;101838.16;;;20.29;46.35
68366;BME280;55283;51.466;5.478;2023-02-18T03:56:30;101839.69;;;20.33;46.31
68366;BME280;55283;51.466;5.478;2023-02-18T03:58:56;101835.31;;;20.32;46.10
68366;BME280;55283;51.466;5.478;2023-02-18T04:01:21;101818.22;;;20.23;46.40
68366;BME280;55283;51.466;5.478;2023-02-18T04:03:47;101812.22;;;20.21;46.41
68366;BME280;55283;51.466;5.478;2023-02-18T04:06:12;101822.56;;;20.28;46.28
68366;BME280;55283;51.466;5.478;2023-02-18T04:08:38;101824.09;;;20.32;46.30
68366;BME280;55283;51.466;5.478;2023-02-18T04:11:04;101815.31;;;20.30;46.18
68366;BME280;55283;51.466;5.478;2023-02-18T04:13:29;101801.78;;;20.25;46.21
68366;BME280;55283;51.466;5.478;2023-02-18T04:15:55;101814.97;;;20.28;46.24
68366;BME280;55283;51.466;5.478;2023-02-18T04:18:21;101809.72;;;20.30;46.52
68366;BME280;55283;51.466;5.478;2023-02-18T04:20:46;101806.56;;;20.28;46.15
68366;BME280;55283;51.466;5.478;2023-02-18T04:23:12;101815.31;;;20.30;46.02
68366;BME280;55283;51.466;5.478;2023-02-18T04:25:37;101788.66;;;20.19;46.35
68366;BME280;55283;51.466;5.478;2023-02-18T04:28:03;101806.97;;;20.27;46.32
68366;BME280;55283;51.466;5.478;2023-02-18T04:30:29;101811.38;;;20.28;46.39
68366;BME280;55283;51.466;5.478;2023-02-18T04:32:54;101818.16;;;20.27;46.13
68366;BME280;55283;51.466;5.478;2023-02-18T04:35:19;101791.44;;;20.19;46.34
68366;BME280;55283;51.466;5.478;2023-02-18T04:37:45;101810.19;;;20.25;46.42
68366;BME280;55283;51.466;5.478;2023-02-18T04:40:11;101802.97;;;20.28;46.05
68366;BME280;55283;51.466;5.478;2023-02-18T04:42:36;101800.97;;;20.25;46.35
68366;BME280;55283;51.466;5.478;2023-02-18T04:45:02;101797.09;;;20.15;46.39
68366;BME280;55283;51.466;5.478;2023-02-18T04:47:28;101801.81;;;20.22;46.40
68366;BME280;55283;51.466;5.478;2023-02-18T04:49:53;101804.22;;;20.23;46.22
68366;BME280;55283;51.466;5.478;2023-02-18T04:52:19;101799.41;;;20.24;46.33
68366;BME280;55283;51.466;5.478;2023-02-18T04:54:44;101802.19;;;20.24;46.44
68366;BME280;55283;51.466;5.478;2023-02-18T04:57:10;101791.00;;;20.24;46.14
68366;BME280;55283;51.466;5.478;2023-02-18T04:59:35;101790.59;;;20.25;46.10
68366;BME280;55283;51.466;5.478;2023-02-18T05:02:01;101800.97;;;20.25;46.05
68366;BME280;55283;51.466;5.478;2023-02-18T05:04:26;101781.03;;;20.23;46.20
68366;BME280;55283;51.466;5.478;2023-02-18T05:06:52;101786.53;;;20.30;45.85
68366;BME280;55283;51.466;5.478;2023-02-18T05:09:17;101784.94;;;20.29;46.22
68366;BME280;55283;51.466;5.478;2023-02-18T05:11:43;101784.16;;;20.28;46.16
68366;BME280;55283;51.466;5.478;2023-02-18T05:14:09;101783.00;;;20.26;45.90
68366;BME280;55283;51.466;5.478;2023-02-18T05:16:34;101778.97;;;20.27;46.23
68366;BME280;55283;51.466;5.478;2023-02-18T05:18:59;101770.56;;;20.27;46.17
68366;BME280;55283;51.466;5.478;2023-02-18T05:21:25;101772.97;;;20.28;46.25
68366;BME280;55283;51.466;5.478;2023-02-18T05:23:50;101764.59;;;20.25;46.12
68366;BME280;55283;51.466;5.478;2023-02-18T05:26:16;101758.63;;;20.23;46.35
68366;BME280;55283;51.466;5.478;2023-02-18T05:28:42;101755.78;;;20.26;46.23
68366;BME280;55283;51.466;5.478;2023-02-18T05:31:07;101758.56;;;20.26;46.32
68366;BME280;55283;51.466;5.478;2023-02-18T05:33:32;101752.97;;;20.26;46.01
68366;BME280;55283;51.466;5.478;2023-02-18T05:35:58;101746.22;;;20.24;45.94
68366;BME280;55283;51.466;5.478;2023-02-18T05:38:23;101755.44;;;20.21;46.33
68366;BME280;55283;51.466;5.478;2023-02-18T05:40:49;101753.38;;;20.28;46.12
68366;BME280;55283;51.466;5.478;2023-02-18T05:43:15;101740.72;;;20.17;45.96
68366;BME280;55283;51.466;5.478;2023-02-18T05:45:40;101750.59;;;20.25;46.14
68366;BME280;55283;51.466;5.478;2023-02-18T05:48:06;101761.00;;;20.24;45.91
68366;BME280;55283;51.466;5.478;2023-02-18T05:50:31;101758.63;;;20.23;46.04
68366;BME280;55283;51.466;5.478;2023-02-18T05:52:57;101752.25;;;20.19;46.15
68366;BME280;55283;51.466;5.478;2023-02-18T05:55:22;101763.38;;;20.26;46.07
68366;BME280;55283;51.466;5.478;2023-02-18T05:57:49;101767.38;;;20.25;46.13
68366;BME280;55283;51.466;5.478;2023-02-18T06:00:14;101748.28;;;20.16;46.21
68366;BME280;55283;51.466;5.478;2023-02-18T06:02:40;101747.78;;;20.25;46.33
68366;BME280;55283;51.466;5.478;2023-02-18T06:05:06;101737.47;;;20.18;46.25
68366;BME280;55283;51.466;5.478;2023-02-18T06:07:31;101739.38;;;20.25;45.99
68366;BME280;55283;51.466;5.478;2023-02-18T06:09:57;101741.44;;;20.21;46.12
68366;BME280;55283;51.466;5.478;2023-02-18T06:12:22;101719.50;;;20.16;46.38
68366;BME280;55283;51.466;5.478;2023-02-18T06:14:48;101722.63;;;20.21;46.23
68366;BME280;55283;51.466;5.478;2023-02-18T06:17:14;101738.66;;;20.21;46.12
68366;BME280;55283;51.466;5.478;2023-02-18T06:19:39;101735.44;;;20.22;46.18
68366;BME280;55283;51.466;5.478;2023-02-18T06:22:06;101739.81;;;20.23;46.18
68366;BME280;55283;51.466;5.478;2023-02-18T06:24:31;101697.88;;;20.20;46.43
68366;BME280;55283;51.466;5.478;2023-02-18T06:26:57;101711.53;;;20.14;46.40
68366;BME280;55283;51.466;5.478;2023-02-18T06:29:22;101717.88;;;20.18;46.70
68366;BME280;55283;51.466;5.478;2023-02-18T06:31:48;101721.09;;;20.17;46.52
68366;BME280;55283;51.466;5.478;2023-02-18T06:34:14;101712.03;;;20.05;47.01
68366;BME280;55283;51.466;5.478;2023-02-18T06:36:39;101714.38;;;20.10;47.06
68366;BME280;55283;51.466;5.478;2023-02-18T06:39:05;101723.56;;;20.11;47.08
68366;BME280;55283;51.466;5.478;2023-02-18T06:41:31;101713.22;;;20.04;47.13
68366;BME280;55283;51.466;5.478;2023-02-18T06:43:56;101724.41;;;20.08;47.26
68366;BME280;55283;51.466;5.478;2023-02-18T06:46:21;101744.75;;;20.12;47.37
68366;BME280;55283;51.466;5.478;2023-02-18T06:48:47;101731.50;;;20.16;47.27
68366;BME280;55283;51.466;5.478;2023-02-18T06:51:13;101726.31;;;20.15;47.26
68366;BME280;55283;51.466;5.478;2023-02-18T06:53:40;101739.38;;;20.25;47.15
68366;BME280;55283;51.466;5.478;2023-02-18T06:56:06;101732.66;;;20.19;46.82
68366;BME280;55283;51.466;5.478;2023-02-18T06:58:31;101744.25;;;20.21;47.82
68366;BME280;55283;51.466;5.478;2023-02-18T07:00:56;101744.91;;;20.32;48.15
68366;BME280;55283;51.466;5.478;2023-02-18T07:03:22;101714.56;;;20.27;47.45
68366;BME280;55283;51.466;5.478;2023-02-18T07:05:47;101728.03;;;20.39;47.92
68366;BME280;55283;51.466;5.478;2023-02-18T07:08:13;101747.19;;;20.44;48.48
68366;BME280;55283;51.466;5.478;2023-02-18T07:10:39;101756.03;;;20.43;48.15
68366;BME280;55283;51.466;5.478;2023-02-18T07:13:04;101755.69;;;20.37;48.16
68366;BME280;55283;51.466;5.478;2023-02-18T07:15:30;101743.22;;;20.42;48.01
68366;BME280;55283;51.466;5.478;2023-02-18T07:17:55;101762.41;;;20.43;48.29
68366;BME280;55283;51.466;5.478;2023-02-18T07:20:22;101750.09;;;20.37;48.49
68366;BME280;55283;51.466;5.478;2023-02-18T07:22:48;101745.66;;;20.36;48.48
68366;BME280;55283;51.466;5.478;2023-02-18T07:25:13;101743.75;;;20.29;48.51
68366;BME280;55283;51.466;5.478;2023-02-18T07:27:39;101750.91;;;20.30;48.40
68366;BME280;55283;51.466;5.478;2023-02-18T07:30:05;101747.03;;;20.21;48.33
68366;BME280;55283;51.466;5.478;2023-02-18T07:32:31;101750.19;;;20.26;48.39
68366;BME280;55283;51.466;5.478;2023-02-18T07:34:56;101747.00;;;20.24;48.76
68366;BME280;55283;51.466;5.478;2023-02-18T07:37:22;101737.41;;;20.25;48.32
68366;BME280;55283;51.466;5.478;2023-02-18T07:39:47;101734.63;;;20.22;48.69
68366;BME280;55283;51.466;5.478;2023-02-18T07:42:13;101720.63;;;20.22;48.51
68366;BME280;55283;51.466;5.478;2023-02-18T07:44:39;101751.31;;;20.32;48.49
68366;BME280;55283;51.466;5.478;2023-02-18T07:47:06;101764.56;;;20.28;48.71
68366;BME280;55283;51.466;5.478;2023-02-18T07:49:33;101765.34;;;20.29;48.91
68366;BME280;55283;51.466;5.478;2023-02-18T07:51:58;101765.34;;;20.29;48.71
68366;BME280;55283;51.466;5.478;2023-02-18T07:54:24;101768.88;;;20.33;48.92
68366;BME280;55283;51.466;5.478;2023-02-18T07:56:50;101771.00;;;20.25;48.70
68366;BME280;55283;51.466;5.478;2023-02-18T07:59:16;101772.56;;;20.26;48.65
68366;BME280;55283;51.466;5.478;2023-02-18T08:01:42;101775.31;;;20.30;48.50
68366;BME280;55283;51.466;5.478;2023-02-18T08:04:08;101767.31;;;20.32;48.52
68366;BME280;55283;51.466;5.478;2023-02-18T08:06:35;101767.25;;;20.35;48.38
68366;BME280;55283;51.466;5.478;2023-02-18T08:09:02;101765.66;;;20.38;48.29
68366;BME280;55283;51.466;5.478;2023-02-18T08:11:28;101772.84;;;20.39;48.81
68366;BME280;55283;51.466;5.478;2023-02-18T08:13:53;101780.94;;;20.30;48.51
68366;BME280;55283;51.466;5.478;2023-02-18T08:16:20;101776.09;;;20.34;48.03
68366;BME280;55283;51.466;5.478;2023-02-18T08:18:45;101781.25;;;20.39;47.92
68366;BME280;55283;51.466;5.478;2023-02-18T08:21:15;101766.84;;;20.41;47.57
68366;BME280;55283;51.466;5.478;2023-02-18T08:23:41;101768.06;;;20.36;47.75
68366;BME280;55283;51.466;5.478;2023-02-18T08:26:07;101766.78;;;20.44;47.73
68366;BME280;55283;51.466;5.478;2023-02-18T08:28:32;101763.59;;;20.42;48.13
68366;BME280;55283;51.466;5.478;2023-02-18T08:30:58;101776.88;;;20.38;48.12
68366;BME280;55283;51.466;5.478;2023-02-18T08:33:23;101782.50;;;20.34;48.27
68366;BME280;55283;51.466;5.478;2023-02-18T08:35:50;101773.69;;;20.32;48.31
68366;BME280;55283;51.466;5.478;2023-02-18T08:38:16;101777.69;;;20.35;45.79
68366;BME280;55283;51.466;5.478;2023-02-18T08:40:42;101754.69;;;20.17;45.01
68366;BME280;55283;51.466;5.478;2023-02-18T08:43:08;101776.41;;;20.05;43.71
68366;BME280;55283;51.466;5.478;2023-02-18T08:45:35;101766.47;;;20.01;43.09
68366;BME280;55283;51.466;5.478;2023-02-18T08:48:02;101762.91;;;19.97;42.54
68366;BME280;55283;51.466;5.478;2023-02-18T08:50:28;101753.78;;;19.89;42.30
68366;BME280;55283;51.466;5.478;2023-02-18T08:52:53;101753.13;;;19.74;42.08
68366;BME280;55283;51.466;5.478;2023-02-18T08:55:19;101784.66;;;19.78;41.07
68366;BME280;55283;51.466;5.478;2023-02-18T08:57:48;101766.75;;;19.72;40.93
68366;BME280;55283;51.466;5.478;2023-02-18T09:00:15;101789.16;;;19.68;41.05
68366;BME280;55283;51.466;5.478;2023-02-18T09:02:41;101767.16;;;19.71;41.42
68366;BME280;55283;51.466;5.478;2023-02-18T09:05:07;101760.75;;;19.74;42.30
68366;BME280;55283;51.466;5.478;2023-02-18T09:07:34;101755.19;;;19.70;42.86
68366;BME280;55283;51.466;5.478;2023-02-18T09:10:00;101765.44;;;19.84;43.86
68366;BME280;55283;51.466;5.478;2023-02-18T09:12:25;101777.84;;;19.83;44.71
68366;BME280;55283;51.466;5.478;2023-02-18T09:14:50;101765.75;;;19.89;44.96
68366;BME280;55283;51.466;5.478;2023-02-18T09:17:16;101778.94;;;19.93;45.10
68366;BME280;55283;51.466;5.478;2023-02-18T09:19:41;101757.38;;;19.93;44.49
68366;BME280;55283;51.466;5.478;2023-02-18T09:22:06;101760.47;;;20.02;44.37
68366;BME280;55283;51.466;5.478;2023-02-18T09:24:36;101756.09;;;19.98;44.71
68366;BME280;55283;51.466;5.478;2023-02-18T09:27:02;101778.03;;;20.03;44.95
68366;BME280;55283;51.466;5.478;2023-02-18T09:29:28;101772.44;;;20.03;45.18
68366;BME280;55283;51.466;5.478;2023-02-18T09:31:53;101770.38;;;20.10;44.62
68366;BME280;55283;51.466;5.478;2023-02-18T09:34:18;101779.13;;;20.12;44.86
68366;BME280;55283;51.466;5.478;2023-02-18T09:36:44;101769.97;;;20.08;44.92
68366;BME280;55283;51.466;5.478;2023-02-18T09:39:09;101774.31;;;20.13;45.11
68366;BME280;55283;51.466;5.478;2023-02-18T09:41:47;101768.38;;;20.07;45.26
68366;BME280;55283;51.466;5.478;2023-02-18T09:44:23;101781.91;;;20.12;44.91
68366;BME280;55283;51.466;5.478;2023-02-18T09:49:30;101786.34;;;20.13;45.16
68366;BME280;55283;51.466;5.478;2023-02-18T09:52:05;101769.09;;;20.15;45.25
68366;BME280;55283;51.466;5.478;2023-02-18T09:54:31;101774.66;;;20.19;45.08
68366;BME280;55283;51.466;5.478;2023-02-18T09:56:57;101778.28;;;20.19;45.10
68366;BME280;55283;51.466;5.478;2023-02-18T09:59:25;101760.38;;;20.09;45.31
68366;BME280;55283;51.466;5.478;2023-02-18T10:01:52;101787.47;;;20.20;45.20
68366;BME280;55283;51.466;5.478;2023-02-18T10:04:26;101790.25;;;20.20;45.26
68366;BME280;55283;51.466;5.478;2023-02-18T10:06:55;101784.28;;;20.18;45.58
68366;BME280;55283;51.466;5.478;2023-02-18T10:09:30;101794.69;;;20.17;45.87
68366;BME280;55283;51.466;5.478;2023-02-18T10:12:06;101802.28;;;20.17;45.68
68366;BME280;55283;51.466;5.478;2023-02-18T10:14:35;101803.09;;;20.17;45.48
68366;BME280;55283;51.466;5.478;2023-02-18T10:17:00;101793.91;;;20.17;45.85
68366;BME280;55283;51.466;5.478;2023-02-18T10:19:32;101793.84;;;20.20;46.04
68366;BME280;55283;51.466;5.478;2023-02-18T10:22:00;101797.00;;;20.26;45.66
68366;BME280;55283;51.466;5.478;2023-02-18T10:24:41;101778.63;;;20.21;45.54
68366;BME280;55283;51.466;5.478;2023-02-18T10:27:08;101801.31;;;20.30;45.43
68366;BME280;55283;51.466;5.478;2023-02-18T10:29:39;101824.97;;;20.26;45.71
68366;BME280;55283;51.466;5.478;2023-02-18T10:32:26;101804.59;;;20.25;45.84
68366;BME280;55283;51.466;5.478;2023-02-18T10:35:02;101810.59;;;20.24;45.81
68366;BME280;55283;51.466;5.478;2023-02-18T10:37:59;101815.03;;;20.21;46.06
68366;BME280;55283;51.466;5.478;2023-02-18T10:43:38;101810.31;;;20.15;46.31
68366;BME280;55283;51.466;5.478;2023-02-18T10:46:28;101817.91;;;20.14;46.33
68366;BME280;55283;51.466;5.478;2023-02-18T10:51:52;101819.84;;;20.21;46.13
68366;BME280;55283;51.466;5.478;2023-02-18T10:54:23;101816.59;;;20.26;45.89
68366;BME280;55283;51.466;5.478;2023-02-18T10:56:51;101818.25;;;20.20;46.15
68366;BME280;55283;51.466;5.478;2023-02-18T10:59:25;101814.66;;;20.19;45.87
68366;BME280;55283;51.466;5.478;2023-02-18T11:01:57;101829.81;;;20.22;45.94
68366;BME280;55283;51.466;5.478;2023-02-18T11:04:38;101820.66;;;20.18;46.16
68366;BME280;55283;51.466;5.478;2023-02-18T11:07:15;101827.09;;;20.15;46.25
68366;BME280;55283;51.466;5.478;2023-02-18T11:09:47;101831.47;;;20.16;46.63
68366;BME280;55283;51.466;5.478;2023-02-18T11:12:18;101839.88;;;20.19;46.64
68366;BME280;55283;51.466;5.478;2023-02-18T11:15:02;101817.91;;;20.14;46.50
68366;BME280;55283;51.466;5.478;2023-02-18T11:17:33;101832.25;;;20.20;46.57
68366;BME280;55283;51.466;5.478;2023-02-18T11:20:01;101848.25;;;20.19;46.68
68366;BME280;55283;51.466;5.478;2023-02-18T11:22:31;101846.66;;;20.18;46.78
68366;BME280;55283;51.466;5.478;2023-02-18T11:25:03;101822.78;;;20.06;46.88
68366;BME280;55283;51.466;5.478;2023-02-18T11:27:41;101827.63;;;20.02;47.18
68366;BME280;55283;51.466;5.478;2023-02-18T11:33:30;101837.13;;;20.12;47.09
68366;BME280;55283;51.466;5.478;2023-02-18T11:35:57;101837.22;;;20.01;47.57
68366;BME280;55283;51.466;5.478;2023-02-18T11:38:54;101836.84;;;19.99;47.70
68366;BME280;55283;51.466;5.478;2023-02-18T11:41:29;101818.34;;;20.09;47.52
68366;BME280;55283;51.466;5.478;2023-02-18T11:43:56;101810.41;;;20.04;47.82
68366;BME280;55283;51.466;5.478;2023-02-18T11:46:23;101816.38;;;20.06;48.20
68366;BME280;55283;51.466;5.478;2023-02-18T11:48:50;101802.75;;;20.11;47.84
68366;BME280;55283;51.466;5.478;2023-02-18T11:51:19;101807.84;;;20.20;47.87
68366;BME280;55283;51.466;5.478;2023-02-18T11:54:40;101813.06;;;20.18;47.75
68366;BME280;55283;51.466;5.478;2023-02-18T11:56:40;101813.88;;;20.15;47.74
68366;BME280;55283;51.466;5.478;2023-02-18T11:59:09;101814.69;;;20.16;47.91
68366;BME280;55283;51.466;5.478;2023-02-18T12:01:49;101826.22;;;20.21;47.67
68366;BME280;55283;51.466;5.478;2023-02-18T12:04:26;101826.94;;;20.29;47.31
68366;BME280;55283;51.466;5.478;2023-02-18T12:09:37;101817.75;;;20.28;47.19
68366;BME280;55283;51.466;5.478;2023-02-18T12:12:15;101835.69;;;20.38;47.25
68366;BME280;55283;51.466;5.478;2023-02-18T12:14:43;101817.66;;;20.35;46.95
68366;BME280;55283;51.466;5.478;2023-02-18T12:23:27;101796.47;;;20.38;47.08
68366;BME280;55283;51.466;5.478;2023-02-18T12:46:29;101782.34;;;20.49;46.79
68366;BME280;55283;51.466;5.478;2023-02-18T13:04:53;101796.47;;;20.38;46.44
68366;BME280;55283;51.466;5.478;2023-02-18T13:13:08;101789.75;;;20.28;46.62
68366;BME280;55283;51.466;5.478;2023-02-18T13:15:39;101780.97;;;20.26;46.88
68366;BME280;55283;51.466;5.478;2023-02-18T13:18:29;101788.19;;;20.24;47.22
68366;BME280;55283;51.466;5.478;2023-02-18T13:21:00;101800.06;;;20.35;46.99
68366;BME280;55283;51.466;5.478;2023-02-18T13:23:32;101801.66;;;20.36;47.07
68366;BME280;55283;51.466;5.478;2023-02-18T13:26:04;101801.31;;;20.30;47.09
68366;BME280;55283;51.466;5.478;2023-02-18T13:28:43;101801.66;;;20.36;47.01
68366;BME280;55283;51.466;5.478;2023-02-18T13:34:04;101804.88;;;20.38;47.08
68366;BME280;55283;51.466;5.478;2023-02-18T13:39:16;101804.88;;;20.38;47.21
68366;BME280;55283;51.466;5.478;2023-02-18T13:41:50;101804.47;;;20.40;47.13
68366;BME280;55283;51.466;5.478;2023-02-18T13:46:52;101799.28;;;20.38;46.90
68366;BME280;55283;51.466;5.478;2023-02-18T13:49:21;101794.78;;;20.44;46.96
68366;BME280;55283;51.466;5.478;2023-02-18T13:51:49;101795.56;;;20.48;46.92
68366;BME280;55283;51.466;5.478;2023-02-18T13:54:25;101784.66;;;20.54;46.80
68366;BME280;55283;51.466;5.478;2023-02-18T13:56:59;101790.25;;;20.57;46.68
68366;BME280;55283;51.466;5.478;2023-02-18T14:02:21;101794.28;;;20.53;46.65
68366;BME280;55283;51.466;5.478;2023-02-18T14:04:55;101795.78;;;20.61;46.62
68366;BME280;55283;51.466;5.478;2023-02-18T14:07:39;101802.56;;;20.64;46.62
68366;BME280;55283;51.466;5.478;2023-02-18T14:18:23;101812.22;;;20.59;46.61
68366;BME280;55283;51.466;5.478;2023-02-18T14:20:50;101786.81;;;20.43;46.77
68366;BME280;55283;51.466;5.478;2023-02-18T14:26:41;101795.06;;;20.53;46.69
68366;BME280;55283;51.466;5.478;2023-02-18T14:31:31;101801.06;;;20.55;46.71
68366;BME280;55283;51.466;5.478;2023-02-18T14:36:45;101796.59;;;20.62;46.59
68366;BME280;55283;51.466;5.478;2023-02-18T14:39:36;101806.16;;;20.64;46.62
68366;BME280;55283;51.466;5.478;2023-02-18T14:50:12;101795.59;;;20.45;46.74
68366;BME280;55283;51.466;5.478;2023-02-18T14:52:55;101799.69;;;20.37;46.97
68366;BME280;55283;51.466;5.478;2023-02-18T14:55:34;101790.81;;;20.42;46.70
68366;BME280;55283;51.466;5.478;2023-02-18T14:58:06;101797.53;;;20.48;46.80
68366;BME280;55283;51.466;5.478;2023-02-18T15:00:39;101782.06;;;20.40;47.02
68366;BME280;55283;51.466;5.478;2023-02-18T15:03:18;101784.44;;;20.41;46.99
68366;BME280;55283;51.466;5.478;2023-02-18T15:05:45;101790.31;;;20.50;46.80
68366;BME280;55283;51.466;5.478;2023-02-18T15:08:19;101796.41;;;20.45;46.86
68366;BME280;55283;51.466;5.478;2023-02-18T15:13:17;101795.97;;;20.47;47.00